Terminal Aerodrome Forecast
Issued by NWS Huntsville, AL

Home | Current Version | Previous Version | Text Only | Print | Product List | Glossary On
Versions: 1 2 3 4 5 6 7 8 9 10 11 12 13 14 15 16 17 18 19 20 21 22 23 24 25 26 27 28 29 30 31 32 33 34 35 36 37
000
FTUS44 KHUN 271547 AAA
TAFMSL
TAF AMD
KMSL 271547Z 2716/2812 23005KT P6SM BKN025
      TEMPO 2716/2718 5SM TSRA BKN025CB
     FM271900 24010KT P6SM BKN040
      TEMPO 2720/2724 5SM -TSRA BR BKN025CB
     FM280000 VRB03KT P6SM BKN050
     FM280500 VRB03KT P6SM BKN250=

USA.gov is the U.S. government's official web portal to all federal, state and local government web resources and services.